| time (UTC) | temp F | wind direction | speed MPH | gust MPH | rain 1hr in | rain 24hr in | rain mn in | humidity % | barometer mb |
| 20260902232538 | 88 | 0 | 0.0 | 12.0 | 0.00 | 0.00 | 0.00 | 69 | 1011.3 |
| 20260902232038 | 89 | 0 | 1.0 | 12.0 | 0.00 | 0.00 | 0.00 | 68 | 1011.2 |
| 20260902231603 | 90 | 0 | 0.0 | 13.0 | 0.00 | 0.00 | 0.00 | 66 | 1011.3 |
| 20260902231038 | 91 | 0 | 2.0 | 13.0 | 0.00 | 0.00 | 0.00 | 64 | 1011.1 |
| 20260902230537 | 93 | 0 | 1.0 | 13.0 | 0.00 | 0.00 | 0.00 | 61 | 1011.2 |
| 20260902230107 | 94 | 0 | 0.0 | 11.0 | 0.00 | 0.00 | 0.00 | 57 | 1011.1 |
| 20260902225538 | 96 | 0 | 1.0 | 10.0 | 0.00 | 0.00 | 0.00 | 53 | 1011.1 |
| 20260902225041 | 98 | 0 | 0.0 | 7.0 | 0.00 | 0.00 | 0.00 | 49 | 1011.1 |
| 20260902224612 | 98 | 0 | 0.0 | 9.0 | 0.00 | 0.00 | 0.00 | 46 | 1011.0 |
| 20260902224037 | 98 | 0 | 1.0 | 9.0 | 0.00 | 0.00 | 0.00 | 46 | 1010.8 |
| 20260902223541 | 99 | 0 | 0.0 | 6.0 | 0.00 | 0.00 | 0.00 | 46 | 1010.7 |
| 20260902223054 | 99 | 0 | 0.0 | 6.0 | 0.00 | 0.00 | 0.00 | 45 | 1010.7 |
| 20260902222538 | 99 | 205 | 0.0 | 1.0 | 0.00 | 0.00 | 0.00 | 45 | 1010.6 |
| 20260902222039 | 99 | 0 | 0.0 | 1.0 | 0.00 | 0.00 | 0.00 | 44 | 1010.6 |
| 20260902221608 | 99 | 0 | 0.0 | 7.0 | 0.00 | 0.00 | 0.00 | 45 | 1010.4 |
| 20260902221038 | 99 | 0 | 0.0 | 7.0 | 0.00 | 0.00 | 0.00 | 45 | 1010.6 |
| 20260902220541 | 99 | 0 | 0.0 | 7.0 | 0.00 | 0.00 | 0.00 | 45 | 1010.7 |
| 20260902220109 | 99 | 0 | 0.0 | 5.0 | 0.00 | 0.00 | 0.00 | 45 | 1010.6 |
| 20260902215537 | 100 | 0 | 0.0 | 3.0 | 0.00 | 0.00 | 0.00 | 43 | 1010.6 |
| 20260902215038 | 101 | 0 | 0.0 | 5.0 | 0.00 | 0.00 | 0.00 | 42 | 1010.7 |
| 20260902214601 | 101 | 0 | 0.0 | 5.0 | 0.00 | 0.00 | 0.00 | 42 | 1010.6 |
| 20260902214039 | 101 | 0 | 0.0 | 5.0 | 0.00 | 0.00 | 0.00 | 42 | 1010.7 |
| 20260902213538 | 102 | 0 | 0.0 | 2.0 | 0.00 | 0.00 | 0.00 | 41 | 1010.8 |
| 20260902213057 | 103 | 0 | 0.0 | 8.0 | 0.00 | 0.00 | 0.00 | 40 | 1010.8 |
| 20260902212539 | 103 | 0 | 0.0 | 8.0 | 0.00 | 0.00 | 0.00 | 41 | 1010.8 |
| 20260902212038 | 102 | 0 | 0.0 | 8.0 | 0.00 | 0.00 | 0.00 | 41 | 1010.9 |
| 20260902211605 | 101 | 194 | 0.0 | 4.0 | 0.00 | 0.00 | 0.00 | 42 | 1011.1 |
| 20260902211037 | 103 | 0 | 0.0 | 4.0 | 0.00 | 0.00 | 0.00 | 40 | 1011.1 |
| 20260902210538 | 103 | 0 | 0.0 | 8.0 | 0.00 | 0.00 | 0.00 | 41 | 1011.1 |
| 20260902210058 | 103 | 0 | 1.0 | 14.0 | 0.00 | 0.00 | 0.00 | 40 | 1011.3 |
| 20260902205538 | 103 | 0 | 1.0 | 14.0 | 0.00 | 0.00 | 0.00 | 40 | 1011.1 |
| 20260902205038 | 103 | 0 | 1.0 | 8.0 | 0.00 | 0.00 | 0.00 | 40 | 1011.3 |
| 20260902204600 | 103 | 220 | 0.0 | 9.0 | 0.00 | 0.00 | 0.00 | 40 | 1011.2 |
| 20260902204038 | 103 | 0 | 0.0 | 9.0 | 0.00 | 0.00 | 0.00 | 39 | 1011.5 |
| 20260902203538 | 103 | 0 | 1.0 | 9.0 | 0.00 | 0.00 | 0.00 | 39 | 1011.2 |
| 20260902203108 | 102 | 271 | 0.0 | 5.0 | 0.00 | 0.00 | 0.00 | 41 | 1011.4 |
| 20260902202538 | 103 | 0 | 0.0 | 14.0 | 0.00 | 0.00 | 0.00 | 40 | 1011.4 |
| 20260902202038 | 103 | 0 | 2.0 | 14.0 | 0.00 | 0.00 | 0.00 | 40 | 1011.5 |
| 20260902201608 | 102 | 250 | 2.0 | 14.0 | 0.00 | 0.00 | 0.00 | 42 | 1011.4 |
| 20260902201039 | 102 | 212 | 4.0 | 13.0 | 0.00 | 0.00 | 0.00 | 41 | 1011.5 |
| 20260902200537 | 102 | 0 | 0.0 | 12.0 | 0.00 | 0.00 | 0.00 | 40 | 1011.5 |
| 20260902200125 | 103 | 0 | 0.0 | 8.0 | 0.00 | 0.00 | 0.00 | 41 | 1011.7 |
| 20260902195537 | 103 | 259 | 0.0 | 10.0 | 0.00 | 0.00 | 0.00 | 41 | 1011.8 |
| 20260902195037 | 103 | 0 | 0.0 | 14.0 | 0.00 | 0.00 | 0.00 | 41 | 1012.0 |
| 20260902194600 | 103 | 0 | 0.0 | 14.0 | 0.00 | 0.00 | 0.00 | 41 | 1012.0 |
| 20260902194037 | 103 | 263 | 1.0 | 13.0 | 0.00 | 0.00 | 0.00 | 42 | 1012.1 |
| 20260902193538 | 101 | 0 | 0.0 | 8.0 | 0.00 | 0.00 | 0.00 | 44 | 1012.2 |
| 20260902193102 | 100 | 0 | 0.0 | 1.0 | 0.00 | 0.00 | 0.00 | 44 | 1012.3 |
| 20260902192541 | 100 | 0 | 0.0 | 8.0 | 0.00 | 0.00 | 0.00 | 45 | 1012.5 |
| 20260902192038 | 101 | 0 | 0.0 | 8.0 | 0.00 | 0.00 | 0.00 | 42 | 1012.6 |
| 20260902191600 | 99 | 0 | 0.0 | 10.0 | 0.00 | 0.00 | 0.00 | 45 | 1012.7 |
| 20260902191038 | 101 | 0 | 0.0 | 10.0 | 0.00 | 0.00 | 0.00 | 43 | 1012.8 |
| 20260902190538 | 101 | 0 | 0.0 | 10.0 | 0.00 | 0.00 | 0.00 | 44 | 1012.7 |
| 20260902185540 | 97 | 0 | 1.0 | 15.0 | 0.00 | 0.00 | 0.00 | 49 | 1012.9 |
| 20260902185037 | 99 | 0 | 0.0 | 15.0 | 0.00 | 0.00 | 0.00 | 46 | 1013.0 |
| 20260902184626 | 99 | 0 | 1.0 | 12.0 | 0.00 | 0.00 | 0.00 | 47 | 1013.0 |
| 20260902184037 | 101 | 0 | 0.0 | 12.0 | 0.00 | 0.00 | 0.00 | 43 | 1013.0 |
| 20260902183538 | 103 | 0 | 1.0 | 12.0 | 0.00 | 0.00 | 0.00 | 43 | 1013.2 |
| 20260902183109 | 101 | 0 | 1.0 | 12.0 | 0.00 | 0.00 | 0.00 | 45 | 1013.3 |
| 20260902182538 | 99 | 0 | 0.0 | 11.0 | 0.00 | 0.00 | 0.00 | 46 | 1013.3 |
| 20260902182038 | 100 | 219 | 1.0 | 11.0 | 0.00 | 0.00 | 0.00 | 47 | 1013.5 |
| 20260902181600 | 99 | 0 | 0.0 | 8.0 | 0.00 | 0.00 | 0.00 | 48 | 1013.6 |
| 20260902181037 | 100 | 0 | 0.0 | 9.0 | 0.00 | 0.00 | 0.00 | 47 | 1013.6 |
| 20260902180538 | 100 | 0 | 0.0 | 14.0 | 0.00 | 0.00 | 0.00 | 48 | 1013.9 |
| 20260902180126 | 99 | 246 | 1.0 | 14.0 | 0.00 | 0.00 | 0.00 | 48 | 1014.0 |
| 20260902175539 | 100 | 271 | 1.0 | 17.0 | 0.00 | 0.00 | 0.00 | 47 | 1014.0 |
| 20260902175039 | 98 | 0 | 4.0 | 17.0 | 0.00 | 0.00 | 0.00 | 50 | 1014.1 |
| 20260902174556 | 97 | 0 | 0.0 | 12.0 | 0.00 | 0.00 | 0.00 | 50 | 1014.2 |
| 20260902174038 | 97 | 0 | 1.0 | 12.0 | 0.00 | 0.00 | 0.00 | 50 | 1014.2 |
| 20260902173538 | 98 | 0 | 0.0 | 14.0 | 0.00 | 0.00 | 0.00 | 50 | 1014.3 |
| 20260902173103 | 97 | 0 | 0.0 | 14.0 | 0.00 | 0.00 | 0.00 | 51 | 1014.4 |
| 20260902172537 | 97 | 0 | 2.0 | 14.0 | 0.00 | 0.00 | 0.00 | 51 | 1014.5 |
| 20260902172038 | 96 | 0 | 1.0 | 12.0 | 0.00 | 0.00 | 0.00 | 54 | 1014.5 |
| 20260902171602 | 96 | 0 | 0.0 | 9.0 | 0.00 | 0.00 | 0.00 | 53 | 1014.6 |
| 20260902171038 | 96 | 0 | 0.0 | 9.0 | 0.00 | 0.00 | 0.00 | 54 | 1014.9 |
| 20260902170538 | 96 | 0 | 0.0 | 4.0 | 0.00 | 0.00 | 0.00 | 54 | 1014.9 |
| 20260902170059 | 95 | 0 | 0.0 | 4.0 | 0.00 | 0.00 | 0.00 | 55 | 1015.0 |
| 20260902165538 | 94 | 0 | 0.0 | 4.0 | 0.00 | 0.00 | 0.00 | 55 | 1015.0 |
| 20260902165038 | 95 | 0 | 0.0 | 0.0 | 0.00 | 0.00 | 0.00 | 56 | 1015.1 |
| 20260902164559 | 95 | 0 | 0.0 | 0.0 | 0.00 | 0.00 | 0.00 | 57 | 1015.2 |
| 20260902164038 | 95 | 0 | 0.0 | 7.0 | 0.00 | 0.00 | 0.00 | 56 | 1015.2 |
| 20260902163538 | 96 | 0 | 0.0 | 12.0 | 0.00 | 0.00 | 0.00 | 57 | 1015.3 |
| 20260902163101 | 96 | 0 | 0.0 | 13.0 | 0.00 | 0.00 | 0.00 | 55 | 1015.3 |
| 20260902162537 | 95 | 248 | 1.0 | 13.0 | 0.00 | 0.00 | 0.00 | 57 | 1015.3 |
| 20260902162037 | 95 | 0 | 2.0 | 13.0 | 0.00 | 0.00 | 0.00 | 57 | 1015.3 |
| 20260902161600 | 94 | 0 | 2.0 | 17.0 | 0.00 | 0.00 | 0.00 | 60 | 1015.3 |
| 20260902161040 | 93 | 0 | 2.0 | 17.0 | 0.00 | 0.00 | 0.00 | 61 | 1015.3 |
| 20260902160538 | 93 | 0 | 3.0 | 16.0 | 0.00 | 0.00 | 0.00 | 60 | 1015.3 |
| 20260902160106 | 92 | 267 | 1.0 | 11.0 | 0.00 | 0.00 | 0.00 | 63 | 1015.3 |
| 20260902155538 | 92 | 0 | 0.0 | 14.0 | 0.00 | 0.00 | 0.00 | 64 | 1015.3 |
| 20260902155038 | 91 | 0 | 1.0 | 14.0 | 0.00 | 0.00 | 0.00 | 65 | 1015.2 |
| 20260902154605 | 91 | 238 | 0.0 | 11.0 | 0.00 | 0.00 | 0.00 | 66 | 1015.3 |
| 20260902154037 | 91 | 0 | 2.0 | 13.0 | 0.00 | 0.00 | 0.00 | 66 | 1015.2 |
| 20260902153538 | 90 | 0 | 2.0 | 13.0 | 0.00 | 0.00 | 0.00 | 66 | 1015.3 |
| 20260902153105 | 90 | 0 | 1.0 | 14.0 | 0.00 | 0.00 | 0.00 | 67 | 1015.3 |
| 20260902152541 | 89 | 0 | 2.0 | 14.0 | 0.00 | 0.00 | 0.00 | 70 | 1015.2 |
| 20260902152040 | 88 | 0 | 0.0 | 13.0 | 0.00 | 0.00 | 0.00 | 71 | 1015.3 |
| 20260902151556 | 87 | 0 | 0.0 | 15.0 | 0.00 | 0.00 | 0.00 | 72 | 1015.2 |
| 20260902151038 | 87 | 0 | 2.0 | 18.0 | 0.00 | 0.00 | 0.00 | 71 | 1015.3 |
| 20260902150541 | 87 | 255 | 3.0 | 18.0 | 0.00 | 0.00 | 0.00 | 72 | 1015.2 |
| 20260902145538 | 87 | 248 | 1.0 | 13.0 | 0.00 | 0.00 | 0.00 | 73 | 1015.3 |
| 20260902145037 | 86 | 0 | 0.0 | 12.0 | 0.00 | 0.00 | 0.00 | 74 | 1015.1 |
| 20260902144603 | 85 | 0 | 0.0 | 12.0 | 0.00 | 0.00 | 0.00 | 75 | 1015.2 |
| 20260902144037 | 85 | 0 | 0.0 | 8.0 | 0.00 | 0.00 | 0.00 | 76 | 1015.3 |
| 20260902143538 | 85 | 0 | 0.0 | 2.0 | 0.00 | 0.00 | 0.00 | 77 | 1015.4 |
| 20260902143057 | 84 | 0 | 0.0 | 0.0 | 0.00 | 0.00 | 0.00 | 78 | 1015.4 |
| 20260902142538 | 83 | 0 | 0.0 | 0.0 | 0.00 | 0.00 | 0.00 | 78 | 1015.7 |
| 20260902142038 | 83 | 0 | 0.0 | 0.0 | 0.00 | 0.00 | 0.00 | 79 | 1015.4 |
| 20260902141607 | 83 | 0 | 0.0 | 0.0 | 0.00 | 0.00 | 0.00 | 80 | 1015.5 |
| 20260902141038 | 82 | 0 | 0.0 | 0.0 | 0.00 | 0.00 | 0.00 | 81 | 1015.5 |
| 20260902140540 | 82 | 0 | 0.0 | 0.0 | 0.00 | 0.00 | 0.00 | 81 | 1015.5 |
| 20260902140103 | 81 | 0 | 0.0 | 0.0 | 0.00 | 0.00 | 0.00 | 82 | 1015.4 |
| 20260902135537 | 81 | 0 | 0.0 | 0.0 | 0.00 | 0.00 | 0.00 | 82 | 1015.4 |
| 20260902135036 | 81 | 0 | 0.0 | 0.0 | 0.00 | 0.00 | 0.00 | 82 | 1015.5 |
| 20260902134604 | 80 | 0 | 0.0 | 0.0 | 0.00 | 0.00 | 0.00 | 83 | 1015.4 |
| 20260902134037 | 80 | 0 | 0.0 | 0.0 | 0.00 | 0.00 | 0.00 | 83 | 1015.4 |
| 20260902133537 | 80 | 0 | 0.0 | 0.0 | 0.00 | 0.00 | 0.00 | 83 | 1015.4 |
| 20260902133100 | 80 | 0 | 0.0 | 0.0 | 0.00 | 0.00 | 0.00 | 83 | 1015.4 |
| 20260902132538 | 80 | 0 | 0.0 | 4.0 | 0.00 | 0.00 | 0.00 | 83 | 1015.3 |
| 20260902132037 | 80 | 0 | 0.0 | 4.0 | 0.00 | 0.00 | 0.00 | 84 | 1015.2 |
| 20260902131607 | 80 | 0 | 0.0 | 0.0 | 0.00 | 0.00 | 0.00 | 84 | 1015.2 |
| 20260902131039 | 79 | 0 | 0.0 | 0.0 | 0.00 | 0.00 | 0.00 | 84 | 1015.2 |
| 20260902130538 | 79 | 0 | 0.0 | 0.0 | 0.00 | 0.00 | 0.00 | 84 | 1015.0 |
| 20260902130058 | 79 | 0 | 0.0 | 0.0 | 0.00 | 0.00 | 0.00 | 84 | 1015.0 |
| 20260902125540 | 79 | 0 | 0.0 | 0.0 | 0.00 | 0.00 | 0.00 | 85 | 1014.9 |
| 20260902125038 | 79 | 0 | 0.0 | 0.0 | 0.00 | 0.00 | 0.00 | 85 | 1014.6 |
| 20260902124604 | 79 | 0 | 0.0 | 0.0 | 0.00 | 0.00 | 0.00 | 85 | 1014.6 |
| 20260902124037 | 78 | 0 | 0.0 | 0.0 | 0.00 | 0.00 | 0.00 | 85 | 1014.4 |
| 20260902123537 | 78 | 0 | 0.0 | 0.0 | 0.00 | 0.00 | 0.00 | 85 | 1014.5 |
| 20260902123105 | 78 | 0 | 0.0 | 0.0 | 0.00 | 0.00 | 0.00 | 85 | 1014.2 |
| 20260902122538 | 78 | 0 | 0.0 | 0.0 | 0.00 | 0.00 | 0.00 | 85 | 1014.2 |
| 20260902122037 | 78 | 0 | 0.0 | 0.0 | 0.00 | 0.00 | 0.00 | 85 | 1014.3 |
| 20260902121605 | 78 | 0 | 0.0 | 0.0 | 0.00 | 0.00 | 0.00 | 85 | 1014.3 |
| 20260902121038 | 78 | 0 | 0.0 | 0.0 | 0.00 | 0.00 | 0.00 | 85 | 1014.2 |
| 20260902120538 | 78 | 0 | 0.0 | 0.0 | 0.00 | 0.00 | 0.00 | 85 | 1014.2 |
| 20260902120056 | 78 | 0 | 0.0 | 0.0 | 0.00 | 0.00 | 0.00 | 85 | 1014.1 |
| 20260902115537 | 77 | 0 | 0.0 | 0.0 | 0.00 | 0.00 | 0.00 | 85 | 1014.1 |
| 20260902115038 | 77 | 0 | 0.0 | 0.0 | 0.00 | 0.00 | 0.00 | 85 | 1014.1 |
| 20260902114602 | 77 | 0 | 0.0 | 0.0 | 0.00 | 0.00 | 0.00 | 85 | 1014.0 |
| 20260902114037 | 77 | 0 | 0.0 | 0.0 | 0.00 | 0.00 | 0.00 | 85 | 1014.1 |
| 20260902113541 | 77 | 0 | 0.0 | 0.0 | 0.00 | 0.00 | 0.00 | 85 | 1014.2 |
| 20260902113111 | 77 | 0 | 0.0 | 0.0 | 0.00 | 0.00 | 0.00 | 84 | 1014.1 |
| 20260902112537 | 77 | 0 | 0.0 | 0.0 | 0.00 | 0.00 | 0.00 | 85 | 1014.2 |
| 20260902112040 | 77 | 0 | 0.0 | 0.0 | 0.00 | 0.00 | 0.00 | 85 | 1014.2 |
| 20260902111601 | 77 | 0 | 0.0 | 0.0 | 0.00 | 0.00 | 0.00 | 85 | 1014.1 |
| 20260902111037 | 77 | 0 | 0.0 | 0.0 | 0.00 | 0.00 | 0.00 | 85 | 1014.2 |
| 20260902110538 | 77 | 0 | 0.0 | 0.0 | 0.00 | 0.00 | 0.00 | 85 | 1014.2 |
| 20260902110101 | 77 | 0 | 0.0 | 0.0 | 0.00 | 0.00 | 0.00 | 85 | 1014.2 |
| 20260902105540 | 77 | 0 | 0.0 | 0.0 | 0.00 | 0.00 | 0.00 | 85 | 1014.2 |
| 20260902105037 | 77 | 0 | 0.0 | 0.0 | 0.00 | 0.00 | 0.00 | 86 | 1014.2 |
| 20260902104559 | 77 | 0 | 0.0 | 0.0 | 0.00 | 0.00 | 0.00 | 86 | 1014.2 |
| 20260902104038 | 77 | 0 | 0.0 | 0.0 | 0.00 | 0.00 | 0.00 | 86 | 1014.2 |
| 20260902103537 | 77 | 0 | 0.0 | 0.0 | 0.00 | 0.00 | 0.00 | 86 | 1014.1 |
| 20260902103056 | 77 | 0 | 0.0 | 0.0 | 0.00 | 0.00 | 0.00 | 86 | 1014.2 |
| 20260902102538 | 77 | 0 | 0.0 | 0.0 | 0.00 | 0.00 | 0.00 | 86 | 1014.2 |
| 20260902102037 | 77 | 0 | 0.0 | 0.0 | 0.00 | 0.00 | 0.00 | 86 | 1014.2 |
| 20260902101604 | 77 | 0 | 0.0 | 0.0 | 0.00 | 0.00 | 0.00 | 86 | 1014.2 |
| 20260902101037 | 77 | 0 | 0.0 | 0.0 | 0.00 | 0.00 | 0.00 | 86 | 1014.2 |
| 20260902100539 | 77 | 0 | 0.0 | 0.0 | 0.00 | 0.00 | 0.00 | 86 | 1014.4 |
| 20260902100100 | 77 | 0 | 0.0 | 0.0 | 0.00 | 0.00 | 0.00 | 86 | 1014.3 |
| 20260902095538 | 77 | 0 | 0.0 | 0.0 | 0.00 | 0.00 | 0.00 | 86 | 1014.3 |
| 20260902095037 | 77 | 0 | 0.0 | 0.0 | 0.00 | 0.00 | 0.00 | 86 | 1014.3 |
| 20260902094600 | 77 | 0 | 0.0 | 0.0 | 0.00 | 0.00 | 0.00 | 86 | 1014.1 |
| 20260902094038 | 77 | 0 | 0.0 | 0.0 | 0.00 | 0.00 | 0.00 | 86 | 1014.1 |
| 20260902093536 | 77 | 0 | 0.0 | 0.0 | 0.00 | 0.00 | 0.00 | 86 | 1014.1 |
| 20260902093053 | 77 | 0 | 0.0 | 0.0 | 0.00 | 0.00 | 0.00 | 86 | 1014.1 |
| 20260902092539 | 77 | 0 | 0.0 | 0.0 | 0.00 | 0.00 | 0.00 | 86 | 1014.1 |
| 20260902092038 | 77 | 0 | 0.0 | 0.0 | 0.00 | 0.00 | 0.00 | 86 | 1014.1 |
| 20260902091558 | 77 | 0 | 0.0 | 0.0 | 0.00 | 0.00 | 0.00 | 86 | 1014.0 |
| 20260902091038 | 77 | 0 | 0.0 | 0.0 | 0.00 | 0.00 | 0.00 | 86 | 1014.0 |
| 20260902090538 | 76 | 0 | 0.0 | 0.0 | 0.00 | 0.00 | 0.00 | 86 | 1014.0 |
| 20260902090049 | 76 | 0 | 0.0 | 0.0 | 0.00 | 0.00 | 0.00 | 86 | 1014.0 |
| 20260902085537 | 76 | 0 | 0.0 | 0.0 | 0.00 | 0.00 | 0.00 | 86 | 1014.0 |
| 20260902085037 | 76 | 0 | 0.0 | 0.0 | 0.00 | 0.00 | 0.00 | 86 | 1014.1 |
| 20260902084604 | 76 | 0 | 0.0 | 0.0 | 0.00 | 0.00 | 0.00 | 86 | 1013.8 |
| 20260902084040 | 76 | 0 | 0.0 | 0.0 | 0.00 | 0.00 | 0.00 | 86 | 1013.8 |
| 20260902083540 | 76 | 0 | 0.0 | 0.0 | 0.00 | 0.00 | 0.00 | 86 | 1013.8 |
| 20260902083055 | 76 | 0 | 0.0 | 0.0 | 0.00 | 0.00 | 0.00 | 86 | 1013.7 |
| 20260902082540 | 76 | 0 | 0.0 | 0.0 | 0.00 | 0.00 | 0.00 | 86 | 1013.7 |
| 20260902082038 | 76 | 0 | 0.0 | 0.0 | 0.00 | 0.00 | 0.00 | 87 | 1013.7 |
| 20260902081559 | 76 | 0 | 0.0 | 0.0 | 0.00 | 0.00 | 0.00 | 87 | 1013.8 |
| 20260902081038 | 76 | 0 | 0.0 | 0.0 | 0.00 | 0.00 | 0.00 | 87 | 1013.8 |
| 20260902080538 | 76 | 0 | 0.0 | 0.0 | 0.00 | 0.00 | 0.00 | 87 | 1013.8 |
| 20260902080107 | 76 | 0 | 0.0 | 0.0 | 0.00 | 0.00 | 0.00 | 87 | 1013.8 |
| 20260902075537 | 76 | 0 | 0.0 | 0.0 | 0.00 | 0.00 | 0.00 | 87 | 1013.9 |
| 20260902075040 | 76 | 0 | 0.0 | 0.0 | 0.00 | 0.00 | 0.00 | 87 | 1013.9 |
| 20260902074557 | 76 | 0 | 0.0 | 0.0 | 0.00 | 0.00 | 0.00 | 87 | 1014.0 |
| 20260902074037 | 75 | 0 | 0.0 | 0.0 | 0.00 | 0.00 | 0.00 | 88 | 1014.0 |
| 20260902073538 | 75 | 0 | 0.0 | 0.0 | 0.00 | 0.00 | 0.00 | 87 | 1014.2 |
| 20260902073056 | 75 | 0 | 0.0 | 0.0 | 0.00 | 0.00 | 0.00 | 87 | 1014.3 |
| 20260902072538 | 76 | 0 | 0.0 | 0.0 | 0.00 | 0.00 | 0.00 | 87 | 1014.4 |
| 20260902072038 | 76 | 0 | 0.0 | 0.0 | 0.00 | 0.00 | 0.00 | 87 | 1014.3 |
| 20260902071602 | 76 | 0 | 0.0 | 0.0 | 0.00 | 0.00 | 0.00 | 87 | 1014.5 |
| 20260902071042 | 76 | 0 | 0.0 | 0.0 | 0.00 | 0.00 | 0.00 | 87 | 1014.6 |
| 20260902070537 | 76 | 0 | 0.0 | 0.0 | 0.00 | 0.00 | 0.00 | 87 | 1014.6 |
| 20260902070106 | 76 | 0 | 0.0 | 0.0 | 0.00 | 0.00 | 0.00 | 87 | 1014.6 |
| 20260902065540 | 76 | 0 | 0.0 | 0.0 | 0.00 | 0.00 | 0.00 | 87 | 1014.6 |
| 20260902065041 | 76 | 0 | 0.0 | 0.0 | 0.00 | 0.00 | 0.00 | 87 | 1014.7 |
| 20260902064606 | 76 | 0 | 0.0 | 0.0 | 0.00 | 0.00 | 0.00 | 87 | 1014.6 |
| 20260902064038 | 76 | 0 | 0.0 | 0.0 | 0.00 | 0.00 | 0.00 | 87 | 1014.5 |
| 20260902063538 | 76 | 0 | 0.0 | 0.0 | 0.00 | 0.00 | 0.00 | 87 | 1014.5 |
| 20260902063058 | 76 | 0 | 0.0 | 0.0 | 0.00 | 0.00 | 0.00 | 87 | 1014.6 |
| 20260902062537 | 76 | 0 | 0.0 | 0.0 | 0.00 | 0.00 | 0.00 | 87 | 1014.4 |
| 20260902062038 | 76 | 0 | 0.0 | 0.0 | 0.00 | 0.00 | 0.00 | 87 | 1014.5 |
| 20260902061612 | 76 | 0 | 0.0 | 0.0 | 0.00 | 0.00 | 0.00 | 87 | 1014.4 |
| 20260902061040 | 76 | 0 | 0.0 | 0.0 | 0.00 | 0.00 | 0.00 | 87 | 1014.3 |
| 20260902060539 | 76 | 0 | 0.0 | 0.0 | 0.00 | 0.00 | 0.00 | 87 | 1014.4 |
| 20260902060103 | 76 | 0 | 0.0 | 0.0 | 0.00 | 0.00 | 0.00 | 87 | 1014.4 |
| 20260902055544 | 76 | 0 | 0.0 | 0.0 | 0.00 | 0.00 | 0.00 | 87 | 1014.4 |
| 20260902055038 | 76 | 0 | 0.0 | 0.0 | 0.00 | 0.00 | 0.00 | 87 | 1014.4 |
| 20260902054601 | 76 | 0 | 0.0 | 0.0 | 0.00 | 0.00 | 0.00 | 87 | 1014.5 |
| 20260902054036 | 76 | 0 | 0.0 | 0.0 | 0.00 | 0.00 | 0.00 | 87 | 1014.4 |
| 20260902053537 | 76 | 0 | 0.0 | 0.0 | 0.00 | 0.00 | 0.00 | 87 | 1014.4 |
| 20260902053051 | 76 | 0 | 0.0 | 0.0 | 0.00 | 0.00 | 0.00 | 86 | 1014.4 |
| 20260902052538 | 76 | 0 | 0.0 | 0.0 | 0.00 | 0.00 | 0.00 | 86 | 1014.5 |
| 20260902052037 | 76 | 0 | 0.0 | 0.0 | 0.00 | 0.00 | 0.00 | 86 | 1014.5 |
| 20260902051558 | 76 | 0 | 0.0 | 0.0 | 0.00 | 0.00 | 0.00 | 86 | 1014.5 |
| 20260902051037 | 76 | 0 | 0.0 | 0.0 | 0.00 | 0.00 | 0.00 | 85 | 1014.4 |
| 20260902050537 | 77 | 0 | 0.0 | 0.0 | 0.00 | 0.00 | 0.00 | 85 | 1014.3 |
| 20260902050104 | 77 | 0 | 0.0 | 0.0 | 0.00 | 0.00 | 0.00 | 85 | 1014.3 |
| 20260902045540 | 77 | 0 | 0.0 | 0.0 | 0.00 | 0.00 | 0.00 | 85 | 1014.3 |
| 20260902045037 | 77 | 0 | 0.0 | 0.0 | 0.00 | 0.00 | 0.00 | 85 | 1014.3 |
| 20260902044552 | 77 | 0 | 0.0 | 0.0 | 0.00 | 0.00 | 0.00 | 85 | 1014.4 |
| 20260902044038 | 77 | 0 | 0.0 | 0.0 | 0.00 | 0.00 | 0.00 | 85 | 1014.4 |
| 20260902043538 | 77 | 0 | 0.0 | 0.0 | 0.00 | 0.00 | 0.00 | 84 | 1014.4 |
| 20260902043104 | 78 | 0 | 0.0 | 0.0 | 0.00 | 0.00 | 0.00 | 84 | 1014.5 |
| 20260902042538 | 78 | 0 | 0.0 | 0.0 | 0.00 | 0.00 | 0.00 | 84 | 1014.5 |
| 20260902042038 | 78 | 0 | 0.0 | 0.0 | 0.00 | 0.00 | 0.00 | 83 | 1014.5 |
| 20260902041607 | 78 | 0 | 0.0 | 0.0 | 0.00 | 0.00 | 0.00 | 83 | 1014.5 |
| 20260902041037 | 78 | 0 | 0.0 | 0.0 | 0.00 | 0.00 | 0.00 | 83 | 1014.6 |
| 20260902040537 | 78 | 0 | 0.0 | 0.0 | 0.00 | 0.00 | 0.00 | 83 | 1014.5 |
| 20260902040101 | 78 | 0 | 0.0 | 0.0 | 0.00 | 0.00 | 0.00 | 83 | 1014.6 |
| 20260902035536 | 78 | 0 | 0.0 | 0.0 | 0.00 | 0.00 | 0.00 | 82 | 1014.6 |
| 20260902035036 | 79 | 0 | 0.0 | 0.0 | 0.00 | 0.00 | 0.00 | 82 | 1014.5 |
| 20260902034554 | 79 | 0 | 0.0 | 0.0 | 0.00 | 0.00 | 0.00 | 82 | 1014.6 |
| 20260902034038 | 79 | 0 | 0.0 | 0.0 | 0.00 | 0.00 | 0.00 | 82 | 1014.7 |
| 20260902033537 | 79 | 0 | 0.0 | 0.0 | 0.00 | 0.00 | 0.00 | 82 | 1014.5 |
| 20260902033110 | 79 | 0 | 0.0 | 0.0 | 0.00 | 0.00 | 0.00 | 82 | 1014.5 |
| 20260902032538 | 79 | 0 | 0.0 | 0.0 | 0.00 | 0.00 | 0.00 | 82 | 1014.5 |
| 20260902032037 | 79 | 0 | 0.0 | 0.0 | 0.00 | 0.00 | 0.00 | 82 | 1014.5 |
| 20260902031602 | 79 | 0 | 0.0 | 0.0 | 0.00 | 0.00 | 0.00 | 81 | 1014.4 |
| 20260902031037 | 79 | 0 | 0.0 | 0.0 | 0.00 | 0.00 | 0.00 | 81 | 1014.2 |
| 20260902030537 | 79 | 0 | 0.0 | 0.0 | 0.00 | 0.00 | 0.00 | 81 | 1014.3 |
| 20260902030056 | 79 | 0 | 0.0 | 0.0 | 0.00 | 0.00 | 0.00 | 80 | 1014.3 |
| 20260902025537 | 80 | 0 | 0.0 | 0.0 | 0.00 | 0.00 | 0.00 | 80 | 1014.2 |
| 20260902025038 | 80 | 0 | 0.0 | 0.0 | 0.00 | 0.00 | 0.00 | 80 | 1014.2 |
| 20260902024552 | 80 | 0 | 0.0 | 0.0 | 0.00 | 0.00 | 0.00 | 79 | 1014.2 |
| 20260902024037 | 81 | 0 | 0.0 | 0.0 | 0.00 | 0.00 | 0.00 | 78 | 1014.2 |
| 20260902023537 | 81 | 0 | 0.0 | 0.0 | 0.00 | 0.00 | 0.00 | 78 | 1014.1 |
| 20260902023104 | 81 | 0 | 0.0 | 0.0 | 0.00 | 0.00 | 0.00 | 77 | 1013.9 |
| 20260902022555 | 81 | 0 | 0.0 | 0.0 | 0.00 | 0.00 | 0.00 | 76 | 1014.0 |
| 20260902022038 | 82 | 0 | 0.0 | 0.0 | 0.00 | 0.00 | 0.00 | 76 | 1013.9 |
| 20260902021616 | 82 | 0 | 0.0 | 0.0 | 0.00 | 0.00 | 0.00 | 75 | 1013.8 |
| 20260902021039 | 82 | 0 | 0.0 | 0.0 | 0.00 | 0.00 | 0.00 | 75 | 1013.9 |
| 20260902020541 | 83 | 0 | 0.0 | 0.0 | 0.00 | 0.00 | 0.00 | 74 | 1013.6 |
| 20260902020101 | 83 | 0 | 0.0 | 0.0 | 0.00 | 0.00 | 0.00 | 73 | 1013.5 |
| 20260902015538 | 83 | 0 | 0.0 | 0.0 | 0.00 | 0.00 | 0.00 | 73 | 1013.6 |
| 20260902015040 | 83 | 0 | 0.0 | 0.0 | 0.00 | 0.00 | 0.00 | 73 | 1013.6 |
| 20260902014553 | 83 | 0 | 0.0 | 0.0 | 0.00 | 0.00 | 0.00 | 72 | 1013.6 |
| 20260902014037 | 83 | 0 | 0.0 | 0.0 | 0.00 | 0.00 | 0.00 | 72 | 1013.4 |
| 20260902013538 | 84 | 0 | 0.0 | 0.0 | 0.00 | 0.00 | 0.00 | 72 | 1013.4 |
| 20260902013057 | 84 | 0 | 0.0 | 0.0 | 0.00 | 0.00 | 0.00 | 72 | 1013.4 |
| 20260902012537 | 84 | 0 | 0.0 | 0.0 | 0.00 | 0.00 | 0.00 | 71 | 1013.5 |
| 20260902012042 | 84 | 0 | 0.0 | 0.0 | 0.00 | 0.00 | 0.00 | 71 | 1013.5 |
| 20260902011605 | 84 | 0 | 0.0 | 0.0 | 0.00 | 0.00 | 0.00 | 70 | 1013.5 |
| 20260902011037 | 85 | 0 | 0.0 | 0.0 | 0.00 | 0.00 | 0.00 | 70 | 1013.3 |
| 20260902010539 | 85 | 0 | 0.0 | 0.0 | 0.00 | 0.00 | 0.00 | 69 | 1013.3 |
| 20260902005542 | 86 | 0 | 0.0 | 9.0 | 0.00 | 0.00 | 0.00 | 68 | 1013.4 |
| 20260902005037 | 86 | 0 | 0.0 | 9.0 | 0.00 | 0.00 | 0.00 | 67 | 1013.3 |
| 20260902004601 | 86 | 0 | 0.0 | 0.0 | 0.00 | 0.00 | 0.00 | 66 | 1013.5 |
| 20260902004039 | 87 | 0 | 0.0 | 1.0 | 0.00 | 0.00 | 0.00 | 65 | 1013.2 |
| 20260902003539 | 87 | 0 | 0.0 | 11.0 | 0.00 | 0.00 | 0.00 | 65 | 1013.4 |
| 20260902003100 | 87 | 0 | 0.0 | 11.0 | 0.00 | 0.00 | 0.00 | 64 | 1013.2 |
| 20260902002539 | 88 | 0 | 0.0 | 11.0 | 0.00 | 0.00 | 0.00 | 63 | 1013.0 |
| 20260902002040 | 88 | 0 | 0.0 | 9.0 | 0.00 | 0.00 | 0.00 | 62 | 1013.1 |
| 20260902001601 | 88 | 0 | 0.0 | 9.0 | 0.00 | 0.00 | 0.00 | 61 | 1013.3 |
| 20260902001039 | 89 | 61 | 1.0 | 16.0 | 0.00 | 0.00 | 0.00 | 61 | 1013.0 |
| 20260902000539 | 89 | 95 | 0.0 | 16.0 | 0.00 | 0.00 | 0.00 | 60 | 1012.9 |
| 20260902000104 | 90 | 0 | 1.0 | 10.0 | 0.00 | 0.00 | 0.00 | 59 | 1012.8 |
| 20260901235539 | 91 | 0 | 1.0 | 14.0 | 0.00 | 0.00 | 0.00 | 58 | 1012.8 |
| 20260901235039 | 92 | 0 | 0.0 | 14.0 | 0.00 | 0.00 | 0.00 | 57 | 1012.9 |
| 20260901234614 | 94 | 0 | 1.0 | 14.0 | 0.00 | 0.00 | 0.00 | 54 | 1012.8 |
| 20260901234044 | 96 | 0 | 2.0 | 14.0 | 0.00 | 0.00 | 0.00 | 49 | 1012.8 |
| 20260901233539 | 96 | 0 | 0.0 | 4.0 | 0.00 | 0.00 | 0.00 | 47 | 1012.5 |
| 20260901233053 | 96 | 0 | 0.0 | 4.0 | 0.00 | 0.00 | 0.00 | 47 | 1012.4 |